Time;durP1;ratioP1;P1;durP2;ratioP2;P2;SDS_P1;SDS_P2;PMS_P1;PMS_P2;Temp;Humidity;BMP_temperature;BMP_pressure;BME280_temperature;BME280_humidity;BME280_pressure;Samples;Min_cycle;Max_cycle;Signal;HPM_P1;HPM_P2
2024/01/17 00:00:12;;;;;;;54.10;48.50;;;;;;;-6.28;99.44;97155.96;107159;1270;23763;-77
2024/01/17 00:03:00;;;;;;;51.50;46.40;;;;;;;-6.34;99.25;97148.45;106789;1264;23041;-76
2024/01/17 00:05:28;;;;;;;60.50;54.50;;;;;;;-6.43;99.07;97146.27;106797;1267;22764;-76
2024/01/17 00:07:56;;;;;;;53.00;47.50;;;;;;;-6.53;99.08;97143.98;106782;1267;22572;-77
2024/01/17 00:10:25;;;;;;;49.70;44.70;;;;;;;-6.64;98.84;97146.40;106947;1275;24373;-77
2024/01/17 00:12:53;;;;;;;45.30;40.50;;;;;;;-6.73;98.95;97146.84;107058;1275;22660;-78
2024/01/17 00:15:22;;;;;;;51.30;46.20;;;;;;;-6.74;98.95;97141.52;107288;1276;22646;-76
2024/01/17 00:17:50;;;;;;;51.10;45.80;;;;;;;-6.71;99.02;97134.95;106966;1259;24721;-77
2024/01/17 00:20:18;;;;;;;50.60;45.70;;;;;;;-6.80;98.78;97135.98;107015;1275;24044;-77
2024/01/17 00:22:46;;;;;;;52.10;45.50;;;;;;;-6.93;98.97;97135.91;106941;1275;25335;-77
2024/01/17 00:25:14;;;;;;;53.90;48.30;;;;;;;-7.07;99.06;97137.11;106851;1264;22660;-80
2024/01/17 00:27:42;;;;;;;56.80;50.80;;;;;;;-7.18;99.31;97132.42;106929;1275;22526;-78
2024/01/17 00:30:11;;;;;;;68.90;62.30;;;;;;;-7.28;99.15;97125.59;106824;1264;24221;-80
2024/01/17 00:32:39;;;;;;;65.60;59.60;;;;;;;-7.36;99.28;97120.45;106901;1264;25366;-80
2024/01/17 00:35:08;;;;;;;47.70;42.50;;;;;;;-7.46;99.28;97121.74;106960;1270;24291;-80
2024/01/17 00:37:37;;;;;;;46.90;41.90;;;;;;;-7.57;99.49;97123.36;108050;1266;24131;-79
2024/01/17 00:40:05;;;;;;;46.90;41.90;;;;;;;-7.61;99.31;97125.30;107860;1275;22551;-80
2024/01/17 00:42:33;;;;;;;45.30;40.60;;;;;;;-7.58;99.47;97131.45;107028;1276;22537;-81
2024/01/17 00:45:03;;;;;;;47.40;42.40;;;;;;;-7.54;99.67;97137.26;106931;1273;22585;-80
2024/01/17 00:47:31;;;;;;;53.10;47.60;;;;;;;-7.50;99.91;97137.29;106870;1273;25423;-78
2024/01/17 00:50:00;;;;;;;53.60;48.00;;;;;;;-7.44;99.99;97141.52;107251;1266;23937;-78
2024/01/17 00:52:30;;;;;;;52.20;47.00;;;;;;;-7.41;100.00;97147.52;107150;1270;22543;-79
2024/01/17 00:54:58;;;;;;;48.10;42.90;;;;;;;-7.41;99.76;97144.61;107316;1275;22530;-78
2024/01/17 00:57:26;;;;;;;48.10;43.10;;;;;;;-7.44;99.34;97137.53;107254;1275;22535;-79
2024/01/17 00:59:54;;;;;;;49.50;44.20;;;;;;;-7.45;99.34;97134.51;107182;1273;24305;-78
2024/01/17 01:02:22;;;;;;;67.70;61.40;;;;;;;-7.45;99.05;97129.76;107259;1252;22562;-78
2024/01/17 01:04:50;;;;;;;53.90;48.30;;;;;;;-7.52;99.21;97130.33;107280;1275;24313;-78
2024/01/17 01:07:18;;;;;;;53.20;47.70;;;;;;;-7.63;99.37;97128.85;106887;1260;22544;-78
2024/01/17 01:09:46;;;;;;;53.30;47.20;;;;;;;-7.75;99.42;97123.46;107380;1260;22542;-78
2024/01/17 01:12:14;;;;;;;72.00;63.60;;;;;;;-7.85;99.74;97124.22;107227;1270;25295;-78
2024/01/17 01:14:42;;;;;;;78.80;71.70;;;;;;;-7.94;99.55;97121.24;107108;1276;22553;-78
2024/01/17 01:17:10;;;;;;;61.10;55.00;;;;;;;-8.03;99.58;97116.60;107327;1270;24022;-78
2024/01/17 01:19:38;;;;;;;60.00;54.40;;;;;;;-8.04;99.51;97115.15;107411;1273;25287;-79
2024/01/17 01:22:06;;;;;;;48.80;44.00;;;;;;;-8.03;99.16;97109.69;107211;1264;22640;-79
2024/01/17 01:24:34;;;;;;;56.00;50.40;;;;;;;-8.06;99.35;97103.25;107174;1275;22553;-79
2024/01/17 01:27:02;;;;;;;61.90;55.50;;;;;;;-8.13;99.68;97100.98;107101;1254;22534;-79
2024/01/17 01:29:30;;;;;;;70.40;63.30;;;;;;;-8.20;99.79;97106.13;107167;1266;24468;-79
2024/01/17 01:31:58;;;;;;;203.50;160.20;;;;;;;-8.30;99.84;97108.60;107221;1273;26506;-78
2024/01/17 01:34:26;;;;;;;52.40;47.20;;;;;;;-8.35;99.88;97103.37;107188;1275;22726;-79
2024/01/17 01:36:54;;;;;;;45.30;40.70;;;;;;;-8.37;99.87;97101.35;107316;1273;22542;-79
2024/01/17 01:39:22;;;;;;;42.60;38.10;;;;;;;-8.37;99.92;97098.05;107289;1273;24478;-78
2024/01/17 01:41:50;;;;;;;44.10;39.90;;;;;;;-8.38;99.72;97096.45;107229;1269;22547;-78
2024/01/17 01:44:18;;;;;;;45.00;40.50;;;;;;;-8.39;99.74;97098.48;107179;1273;24235;-78
2024/01/17 01:46:48;;;;;;;62.80;57.10;;;;;;;-8.46;99.78;97090.11;107208;1264;26654;-78
2024/01/17 01:49:17;;;;;;;68.10;61.90;;;;;;;-8.50;99.96;97088.48;107203;1270;24426;-78
2024/01/17 01:51:48;;;;;;;104.10;94.10;;;;;;;-8.59;99.77;97077.98;107230;1269;25372;-78
2024/01/17 01:54:20;;;;;;;68.90;62.70;;;;;;;-8.65;99.91;97079.27;107188;1260;24253;-78
2024/01/17 01:56:49;;;;;;;51.90;46.90;;;;;;;-8.70;99.75;97077.27;107168;1275;23826;-77
2024/01/17 01:59:19;;;;;;;39.00;35.30;;;;;;;-8.71;99.85;97076.81;107157;1261;22891;-78
2024/01/17 02:01:48;;;;;;;38.80;35.00;;;;;;;-8.70;100.00;97075.66;107098;1275;24425;-78
2024/01/17 02:04:17;;;;;;;36.20;32.40;;;;;;;-8.68;100.00;97072.51;107168;1273;24245;-77
2024/01/17 02:06:48;;;;;;;39.20;35.10;;;;;;;-8.60;100.00;97071.50;107218;1273;22534;-77
2024/01/17 02:09:16;;;;;;;53.50;48.50;;;;;;;-8.58;100.00;97070.15;107246;1264;22643;-78
2024/01/17 02:11:45;;;;;;;62.10;56.50;;;;;;;-8.56;100.00;97067.06;107228;1267;22563;-78
2024/01/17 02:14:14;;;;;;;38.20;34.20;;;;;;;-8.54;100.00;97064.41;107209;1261;22567;-78
2024/01/17 02:16:42;;;;;;;36.30;32.40;;;;;;;-8.56;100.00;97062.23;107347;1275;25435;-78
2024/01/17 02:19:15;;;;;;;36.90;33.10;;;;;;;-8.53;100.00;97055.58;107264;1268;25420;-78
2024/01/17 02:21:43;;;;;;;37.60;33.20;;;;;;;-8.46;100.00;97058.15;107150;1272;22705;-77
2024/01/17 02:24:20;;;;;;;36.90;31.70;;;;;;;-8.42;100.00;97053.05;106807;1261;24450;-78
2024/01/17 02:26:49;;;;;;;73.30;66.90;;;;;;;-8.42;100.00;97057.45;107221;1270;22597;-78
2024/01/17 02:29:17;;;;;;;109.70;99.80;;;;;;;-8.44;100.00;97056.55;107097;1276;22548;-76
2024/01/17 02:31:45;;;;;;;43.40;39.20;;;;;;;-8.45;100.00;97056.31;106857;1262;24228;-77
2024/01/17 02:34:14;;;;;;;38.60;34.60;;;;;;;-8.45;100.00;97050.33;107263;1272;25491;-77
2024/01/17 02:36:42;;;;;;;36.20;32.60;;;;;;;-8.43;100.00;97045.18;107193;1259;22537;-78
2024/01/17 02:39:11;;;;;;;34.80;31.20;;;;;;;-8.41;100.00;97045.42;107146;1273;22542;-78
2024/01/17 02:41:39;;;;;;;35.10;31.40;;;;;;;-8.42;100.00;97041.13;107076;1254;22544;-78
2024/01/17 02:44:07;;;;;;;34.70;30.90;;;;;;;-8.45;100.00;97034.16;107179;1275;25481;-77
2024/01/17 02:46:35;;;;;;;54.00;49.40;;;;;;;-8.46;100.00;97028.54;107174;1275;24218;-78
2024/01/17 02:49:03;;;;;;;156.90;141.40;;;;;;;-8.51;100.00;97016.95;107229;1275;22557;-78
2024/01/17 02:51:31;;;;;;;43.20;39.20;;;;;;;-8.52;100.00;97016.71;107152;1273;22651;-78
2024/01/17 02:53:59;;;;;;;38.30;34.40;;;;;;;-8.44;100.00;97009.48;107220;1275;24605;-79
2024/01/17 02:56:27;;;;;;;32.90;29.50;;;;;;;-8.36;100.00;97003.55;107328;1273;22546;-78
2024/01/17 02:58:55;;;;;;;31.90;28.70;;;;;;;-8.33;100.00;96998.45;107347;1275;22551;-78
2024/01/17 03:01:23;;;;;;;39.40;35.60;;;;;;;-8.33;100.00;96995.76;107292;1273;25353;-76
2024/01/17 03:03:51;;;;;;;31.60;28.20;;;;;;;-8.24;100.00;96993.27;108131;1270;25252;-76
2024/01/17 03:06:19;;;;;;;32.90;29.50;;;;;;;-8.20;100.00;96991.14;107408;1276;23920;-78
2024/01/17 03:08:47;;;;;;;48.60;43.90;;;;;;;-8.18;100.00;96988.98;107148;1270;22544;-78
2024/01/17 03:11:15;;;;;;;30.10;27.00;;;;;;;-8.10;100.00;96991.29;107179;1275;24234;-79
2024/01/17 03:13:43;;;;;;;30.90;27.40;;;;;;;-8.14;100.00;96989.56;107079;1275;22633;-78
2024/01/17 03:16:13;;;;;;;29.10;25.90;;;;;;;-8.10;100.00;96991.09;107038;1273;22549;-77
2024/01/17 03:18:41;;;;;;;28.20;25.20;;;;;;;-7.97;100.00;96997.14;107287;1260;23359;-79
2024/01/17 03:21:09;;;;;;;29.10;26.30;;;;;;;-7.90;100.00;96992.28;107090;1276;25372;-78
2024/01/17 03:23:38;;;;;;;27.50;24.50;;;;;;;-7.92;100.00;96991.42;107365;1266;25228;-78
2024/01/17 03:26:06;;;;;;;28.10;25.20;;;;;;;-7.94;100.00;96986.84;107935;1275;22565;-79
2024/01/17 03:28:34;;;;;;;139.30;109.20;;;;;;;-8.01;100.00;96984.39;108003;1275;24516;-77
2024/01/17 03:31:29;;;;;;;43.10;38.70;;;;;;;-7.99;100.00;96975.80;107696;1275;22633;-78
2024/01/17 03:33:56;;;;;;;29.40;26.30;;;;;;;-7.86;100.00;96985.27;107266;1275;23007;-78
2024/01/17 03:36:25;;;;;;;29.70;26.60;;;;;;;-7.70;100.00;96990.50;107249;1253;25260;-77
2024/01/17 03:38:54;;;;;;;32.30;29.00;;;;;;;-7.58;100.00;96997.35;107199;1272;22802;-78
2024/01/17 03:41:22;;;;;;;27.00;24.10;;;;;;;-7.55;100.00;96997.02;107137;1269;22790;-77
2024/01/17 03:43:50;;;;;;;27.70;23.50;;;;;;;-7.62;100.00;96994.84;107141;1273;24237;-78
2024/01/17 03:46:18;;;;;;;41.90;37.80;;;;;;;-7.73;100.00;96989.15;107255;1272;24754;-78
2024/01/17 03:48:46;;;;;;;70.90;65.00;;;;;;;-7.80;100.00;96997.20;107156;1275;22546;-78
2024/01/17 03:51:14;;;;;;;63.10;57.50;;;;;;;-7.78;100.00;97002.16;107100;1273;22572;-78
2024/01/17 03:53:42;;;;;;;40.60;36.90;;;;;;;-7.67;100.00;96998.63;107074;1265;22537;-77
2024/01/17 03:56:10;;;;;;;30.00;24.90;;;;;;;-7.57;100.00;96997.59;107129;1269;24328;-78
2024/01/17 03:58:41;;;;;;;28.90;23.90;;;;;;;-7.50;100.00;97000.55;107326;1275;22541;-78
2024/01/17 04:01:12;;;;;;;25.00;22.50;;;;;;;-7.41;100.00;97000.69;107251;1275;22763;-78
2024/01/17 04:03:41;;;;;;;26.90;23.50;;;;;;;-7.28;100.00;96998.02;107236;1260;22551;-77
2024/01/17 04:06:34;;;;;;;26.60;22.70;;;;;;;-7.14;100.00;96993.37;106927;1276;22569;-77
2024/01/17 04:09:02;;;;;;;35.60;32.10;;;;;;;-7.00;100.00;96988.31;107301;1268;22586;-78
2024/01/17 04:11:30;;;;;;;30.90;27.70;;;;;;;-6.91;100.00;96982.86;107218;1273;22547;-78
2024/01/17 04:13:58;;;;;;;35.70;31.50;;;;;;;-6.83;100.00;96975.54;107248;1268;24289;-78
2024/01/17 04:16:26;;;;;;;36.30;32.70;;;;;;;-6.74;100.00;96971.89;107095;1275;22527;-78
2024/01/17 04:18:54;;;;;;;30.90;27.80;;;;;;;-6.70;100.00;96969.05;107160;1270;25493;-78
2024/01/17 04:21:23;;;;;;;32.00;28.90;;;;;;;-6.70;100.00;96968.36;107169;1271;25491;-78
2024/01/17 04:23:51;;;;;;;31.80;28.60;;;;;;;-6.70;100.00;96965.75;107222;1275;22585;-78
2024/01/17 04:26:22;;;;;;;35.70;32.00;;;;;;;-6.72;100.00;96962.44;107211;1275;22558;-78
2024/01/17 04:28:54;;;;;;;47.80;43.30;;;;;;;-6.78;100.00;96956.24;107276;1268;22597;-78
2024/01/17 04:31:27;;;;;;;33.90;30.60;;;;;;;-6.89;100.00;96954.48;107202;1267;22554;-77
2024/01/17 04:33:57;;;;;;;29.40;25.60;;;;;;;-7.00;100.00;96957.06;107158;1266;22541;-77
2024/01/17 04:36:30;;;;;;;27.30;24.40;;;;;;;-7.02;100.00;96956.38;106809;1273;24367;-78
2024/01/17 04:39:00;;;;;;;25.90;23.20;;;;;;;-7.00;100.00;96950.45;107034;1275;22665;-78
2024/01/17 04:41:30;;;;;;;26.90;24.20;;;;;;;-6.97;100.00;96940.03;107182;1270;22527;-77
2024/01/17 04:43:58;;;;;;;23.90;21.50;;;;;;;-6.93;100.00;96935.66;107178;1268;22511;-77
2024/01/17 04:46:26;;;;;;;36.10;32.70;;;;;;;-6.93;100.00;96932.52;107234;1262;24314;-78
2024/01/17 04:48:54;;;;;;;47.70;43.60;;;;;;;-6.89;100.00;96921.73;107209;1271;22552;-78
2024/01/17 04:51:24;;;;;;;31.30;28.10;;;;;;;-6.88;100.00;96922.09;107133;1266;22548;-78
2024/01/17 04:53:52;;;;;;;30.30;27.30;;;;;;;-6.88;100.00;96918.88;107159;1268;22660;-78
2024/01/17 04:56:20;;;;;;;27.70;25.00;;;;;;;-6.85;100.00;96913.49;107208;1275;22536;-78
2024/01/17 04:58:48;;;;;;;27.80;25.00;;;;;;;-6.84;100.00;96905.42;107200;1258;22570;-79
2024/01/17 05:01:15;;;;;;;25.70;23.10;;;;;;;-6.76;100.00;96902.14;107155;1264;25107;-79
2024/01/17 05:03:43;;;;;;;26.60;23.70;;;;;;;-6.72;100.00;96900.98;107205;1267;22748;-78
2024/01/17 05:06:11;;;;;;;32.20;29.10;;;;;;;-6.68;100.00;96892.94;107148;1270;22524;-78
2024/01/17 05:08:39;;;;;;;41.50;37.60;;;;;;;-6.65;100.00;96891.34;107210;1275;25689;-77
2024/01/17 05:11:07;;;;;;;31.80;28.70;;;;;;;-6.65;100.00;96886.88;106865;1275;22652;-76
2024/01/17 05:13:37;;;;;;;28.60;25.50;;;;;;;-6.63;100.00;96885.23;106820;1275;24203;-78
2024/01/17 05:16:05;;;;;;;27.50;24.60;;;;;;;-6.61;100.00;96880.98;107143;1265;24373;-78
2024/01/17 05:18:34;;;;;;;26.30;23.40;;;;;;;-6.59;100.00;96881.41;107169;1275;22587;-79
2024/01/17 05:21:02;;;;;;;27.10;23.70;;;;;;;-6.56;100.00;96884.29;107181;1275;25449;-77
2024/01/17 05:23:30;;;;;;;26.90;23.90;;;;;;;-6.48;100.00;96884.74;107252;1275;25300;-79
2024/01/17 05:25:58;;;;;;;27.80;25.00;;;;;;;-6.39;100.00;96883.29;107413;1266;22530;-77
2024/01/17 05:28:26;;;;;;;28.80;25.80;;;;;;;-6.31;100.00;96876.09;108636;1275;23220;-77
2024/01/17 05:30:54;;;;;;;28.10;25.20;;;;;;;-6.25;100.00;96874.13;107290;1276;25383;-78
2024/01/17 05:33:22;;;;;;;28.10;24.90;;;;;;;-6.20;100.00;96867.70;107252;1275;22845;-79
2024/01/17 05:35:50;;;;;;;24.60;22.00;;;;;;;-6.15;100.00;96862.05;107194;1266;25376;-79
2024/01/17 05:38:18;;;;;;;26.20;23.60;;;;;;;-6.12;100.00;96853.42;107216;1275;26059;-79
2024/01/17 05:40:46;;;;;;;25.70;23.00;;;;;;;-6.12;100.00;96850.68;107335;1275;22579;-79
2024/01/17 05:43:14;;;;;;;24.40;21.90;;;;;;;-6.11;100.00;96849.14;107122;1270;23347;-79
2024/01/17 05:45:43;;;;;;;37.80;34.50;;;;;;;-6.09;100.00;96840.08;106840;1275;24308;-79
2024/01/17 05:48:11;;;;;;;26.20;23.70;;;;;;;-6.05;100.00;96838.58;107188;1275;22569;-79
2024/01/17 05:50:39;;;;;;;24.60;22.10;;;;;;;-6.01;100.00;96831.15;107144;1275;22625;-80
2024/01/17 05:53:07;;;;;;;23.10;20.60;;;;;;;-5.95;100.00;96831.60;107216;1258;22558;-78
2024/01/17 05:55:35;;;;;;;28.30;25.30;;;;;;;-5.92;100.00;96829.63;107258;1266;22540;-78
2024/01/17 05:58:03;;;;;;;34.10;30.40;;;;;;;-5.89;100.00;96825.81;107385;1275;25225;-79
2024/01/17 06:00:31;;;;;;;31.50;28.00;;;;;;;-5.88;100.00;96823.91;107397;1275;22534;-78
2024/01/17 06:02:59;;;;;;;27.50;24.50;;;;;;;-5.89;100.00;96820.95;106915;1275;24365;-80
2024/01/17 06:05:28;;;;;;;23.90;21.50;;;;;;;-5.85;100.00;96820.61;107260;1262;23004;-78
2024/01/17 06:07:56;;;;;;;21.60;19.50;;;;;;;-5.80;100.00;96821.14;107190;1275;22581;-79
2024/01/17 06:10:26;;;;;;;22.10;19.90;;;;;;;-5.73;100.00;96816.50;107313;1265;23486;-78
2024/01/17 06:12:55;;;;;;;21.40;19.20;;;;;;;-5.68;100.00;96819.19;107235;1273;22686;-80
2024/01/17 06:15:23;;;;;;;26.00;23.30;;;;;;;-5.66;100.00;96818.84;106918;1270;24365;-79
2024/01/17 06:17:51;;;;;;;40.40;36.10;;;;;;;-5.66;100.00;96814.06;107218;1253;22546;-80
2024/01/17 06:20:18;;;;;;;48.00;43.00;;;;;;;-5.71;100.00;96810.63;107140;1269;22536;-79
2024/01/17 06:22:46;;;;;;;52.80;47.20;;;;;;;-5.80;100.00;96810.02;107154;1270;22539;-79
2024/01/17 06:25:14;;;;;;;40.20;36.00;;;;;;;-5.87;100.00;96814.42;107069;1272;23897;-79
2024/01/17 06:27:42;;;;;;;33.90;30.20;;;;;;;-5.94;100.00;96816.63;107200;1271;22591;-79
2024/01/17 06:30:11;;;;;;;32.00;28.60;;;;;;;-5.95;100.00;96822.33;107153;1264;24230;-78
2024/01/17 06:32:39;;;;;;;29.80;26.80;;;;;;;-5.93;100.00;96823.11;107224;1272;23925;-78
2024/01/17 06:35:10;;;;;;;30.00;27.00;;;;;;;-5.94;100.00;96817.15;107056;1273;22543;-78
2024/01/17 06:37:38;;;;;;;37.20;33.60;;;;;;;-5.96;100.00;96817.34;107169;1270;25307;-79
2024/01/17 06:40:08;;;;;;;34.00;30.50;;;;;;;-6.00;100.00;96809.02;107016;1260;22546;-77
2024/01/17 06:42:37;;;;;;;33.20;29.80;;;;;;;-6.02;100.00;96804.05;107326;1275;24056;-78
2024/01/17 06:45:05;;;;;;;30.30;27.00;;;;;;;-6.03;100.00;96800.28;107204;1269;25180;-78
2024/01/17 06:47:33;;;;;;;28.90;25.50;;;;;;;-6.01;100.00;96798.30;107090;1267;22537;-78
2024/01/17 06:50:01;;;;;;;28.10;25.00;;;;;;;-5.95;100.00;96796.14;107104;1262;25422;-79
2024/01/17 06:52:29;;;;;;;28.20;25.20;;;;;;;-5.88;100.00;96790.86;107121;1268;22636;-79
2024/01/17 06:54:57;;;;;;;27.90;25.00;;;;;;;-5.85;100.00;96786.95;107178;1275;22660;-78
2024/01/17 06:57:25;;;;;;;25.70;23.00;;;;;;;-5.83;100.00;96780.15;107156;1275;24088;-79
2024/01/17 06:59:53;;;;;;;26.10;23.40;;;;;;;-5.81;100.00;96782.34;107177;1262;23941;-79
2024/01/17 07:02:21;;;;;;;30.10;27.00;;;;;;;-5.81;100.00;96777.54;107103;1273;22556;-79
2024/01/17 07:04:49;;;;;;;27.70;24.90;;;;;;;-5.83;100.00;96775.98;107173;1266;22655;-80
2024/01/17 07:07:17;;;;;;;24.50;21.90;;;;;;;-5.78;100.00;96777.33;107166;1271;24236;-78
2024/01/17 07:09:46;;;;;;;24.50;21.50;;;;;;;-5.72;100.00;96772.86;107226;1260;22564;-79
2024/01/17 07:12:14;;;;;;;24.60;22.20;;;;;;;-5.63;100.00;96767.73;107304;1275;25358;-79
2024/01/17 07:14:43;;;;;;;27.80;23.60;;;;;;;-5.56;100.00;96762.61;107243;1273;24072;-79
2024/01/17 07:17:11;;;;;;;23.70;21.20;;;;;;;-5.52;100.00;96760.95;107209;1275;23316;-79
2024/01/17 07:19:39;;;;;;;27.90;25.10;;;;;;;-5.48;100.00;96757.70;107208;1275;24247;-78
2024/01/17 07:22:09;;;;;;;34.60;31.10;;;;;;;-5.44;100.00;96761.40;107276;1253;22635;-79
2024/01/17 07:24:37;;;;;;;31.70;28.40;;;;;;;-5.42;100.00;96756.98;107185;1262;23363;-80
2024/01/17 07:27:05;;;;;;;29.60;26.60;;;;;;;-5.41;100.00;96750.09;107409;1271;26517;-79
2024/01/17 07:29:35;;;;;;;25.70;23.10;;;;;;;-5.38;100.00;96747.89;107313;1273;25417;-80
2024/01/17 07:32:03;;;;;;;22.10;19.90;;;;;;;-5.33;100.00;96751.74;107259;1271;23890;-80
2024/01/17 07:34:31;;;;;;;24.90;22.40;;;;;;;-5.29;100.00;96746.70;107259;1273;22547;-79
2024/01/17 07:37:00;;;;;;;24.10;21.70;;;;;;;-5.25;100.00;96743.90;107224;1264;23808;-78
2024/01/17 07:39:28;;;;;;;25.20;22.80;;;;;;;-5.21;100.00;96733.55;107222;1262;25366;-76
2024/01/17 07:41:56;;;;;;;25.40;22.90;;;;;;;-5.15;100.00;96727.06;106839;1263;25252;-78
2024/01/17 07:44:29;;;;;;;25.30;22.70;;;;;;;-5.12;99.92;96725.52;106961;1263;25319;-79
2024/01/17 07:46:57;;;;;;;25.90;22.00;;;;;;;-5.08;99.40;96723.19;106945;1269;22652;-76
2024/01/17 07:49:25;;;;;;;24.00;21.50;;;;;;;-5.03;99.36;96717.48;107570;1269;22534;-77
2024/01/17 07:51:54;;;;;;;25.30;22.80;;;;;;;-4.94;99.38;96713.20;107381;1269;22537;-76
2024/01/17 07:54:23;;;;;;;25.30;22.80;;;;;;;-4.87;99.53;96712.16;107608;1269;22574;-76
2024/01/17 07:56:51;;;;;;;24.00;21.40;;;;;;;-4.83;99.09;96706.52;107500;1262;22527;-77
2024/01/17 07:59:19;;;;;;;24.70;21.60;;;;;;;-4.78;99.16;96709.45;107635;1275;22551;-77
2024/01/17 08:01:49;;;;;;;26.40;23.70;;;;;;;-4.73;98.84;96704.32;106993;1275;23214;-76
2024/01/17 08:04:17;;;;;;;26.90;24.10;;;;;;;-4.70;98.71;96700.54;107084;1268;25339;-77
2024/01/17 08:06:46;;;;;;;25.30;22.80;;;;;;;-4.66;98.50;96700.66;107015;1276;22648;-76
2024/01/17 08:09:20;;;;;;;26.10;23.00;;;;;;;-4.62;98.26;96692.77;106898;1269;22748;-77
2024/01/17 08:11:54;;;;;;;24.60;22.00;;;;;;;-4.53;98.22;96688.37;106945;1266;22568;-78
2024/01/17 08:14:22;;;;;;;26.10;23.40;;;;;;;-4.45;98.39;96686.54;107207;1263;22552;-77
2024/01/17 08:16:51;;;;;;;25.70;23.20;;;;;;;-4.36;98.59;96680.77;108204;1262;23271;-78
2024/01/17 08:19:19;;;;;;;29.70;26.80;;;;;;;-4.30;97.83;96675.52;107535;1263;22549;-77
2024/01/17 08:21:51;;;;;;;34.80;31.40;;;;;;;-4.29;97.55;96670.40;107365;1269;22550;-77
2024/01/17 08:24:19;;;;;;;35.90;32.20;;;;;;;-4.25;97.07;96665.41;107487;1275;22594;-78
2024/01/17 08:26:47;;;;;;;34.80;31.10;;;;;;;-4.23;96.84;96664.25;107426;1269;24394;-78
2024/01/17 08:29:17;;;;;;;30.30;27.10;;;;;;;-4.19;96.93;96654.85;107347;1272;22527;-79
2024/01/17 08:31:45;;;;;;;26.70;23.90;;;;;;;-4.12;96.92;96643.98;107405;1269;22534;-77
2024/01/17 08:34:13;;;;;;;26.80;24.00;;;;;;;-4.05;96.78;96633.52;107313;1266;22704;-77
2024/01/17 08:36:42;;;;;;;28.60;25.80;;;;;;;-3.99;96.93;96629.05;107314;1261;22905;-77
2024/01/17 08:39:11;;;;;;;28.00;25.10;;;;;;;-3.94;96.57;96626.67;107375;1269;22600;-78
2024/01/17 08:41:41;;;;;;;26.90;24.30;;;;;;;-3.89;96.00;96630.65;107042;1274;25413;-76
2024/01/17 08:44:10;;;;;;;28.70;25.80;;;;;;;-3.84;96.01;96626.04;107062;1275;23925;-77
2024/01/17 08:46:43;;;;;;;27.30;24.50;;;;;;;-3.78;96.04;96611.41;106928;1260;22530;-76
2024/01/17 08:49:14;;;;;;;26.70;24.00;;;;;;;-3.73;95.35;96611.91;106846;1275;24229;-76
2024/01/17 08:51:42;;;;;;;26.70;23.90;;;;;;;-3.68;95.54;96605.84;107094;1262;24217;-78
2024/01/17 08:54:10;;;;;;;23.90;21.40;;;;;;;-3.60;95.40;96605.80;106890;1272;22540;-76
2024/01/17 08:56:38;;;;;;;29.10;25.90;;;;;;;-3.49;95.04;96607.59;106905;1262;24264;-77
2024/01/17 08:59:06;;;;;;;26.20;23.50;;;;;;;-3.42;94.83;96609.33;107332;1269;22586;-77
2024/01/17 09:01:34;;;;;;;34.10;30.50;;;;;;;-3.35;94.40;96604.73;107321;1274;22898;-76
2024/01/17 09:04:03;;;;;;;35.80;32.10;;;;;;;-3.34;93.98;96598.13;106985;1275;22691;-77
2024/01/17 09:06:31;;;;;;;35.10;31.00;;;;;;;-3.27;93.35;96605.30;107273;1275;22622;-77
2024/01/17 09:08:59;;;;;;;30.60;27.60;;;;;;;-3.25;92.81;96598.35;106983;1275;22550;-76
2024/01/17 09:11:28;;;;;;;34.30;30.30;;;;;;;-3.22;92.54;96603.41;106903;1275;22526;-76
2024/01/17 09:13:56;;;;;;;32.10;28.80;;;;;;;-3.15;92.74;96594.27;107041;1268;23420;-77
2024/01/17 09:16:24;;;;;;;34.70;31.20;;;;;;;-3.07;93.01;96587.85;107011;1275;22540;-78
2024/01/17 09:18:52;;;;;;;32.30;29.00;;;;;;;-3.01;92.71;96573.29;107439;1275;23227;-76
2024/01/17 09:21:21;;;;;;;24.20;21.80;;;;;;;-2.94;92.66;96571.26;107051;1275;23333;-78
2024/01/17 09:23:49;;;;;;;28.60;25.80;;;;;;;-2.84;93.02;96573.22;107314;1268;22545;-77
2024/01/17 09:26:17;;;;;;;24.80;22.00;;;;;;;-2.73;92.24;96568.45;107019;1260;22535;-78
2024/01/17 09:28:45;;;;;;;26.00;23.40;;;;;;;-2.67;91.56;96573.63;107422;1267;22550;-77
2024/01/17 09:31:14;;;;;;;27.60;24.80;;;;;;;-2.63;92.16;96567.29;107444;1265;25396;-77
2024/01/17 09:33:42;;;;;;;27.60;24.70;;;;;;;-2.56;91.09;96553.19;107358;1260;22547;-77
2024/01/17 09:36:10;;;;;;;24.70;22.00;;;;;;;-2.50;91.01;96562.57;107569;1275;23014;-75
2024/01/17 09:38:39;;;;;;;26.60;24.00;;;;;;;-2.40;91.29;96548.70;107416;1265;24357;-77
2024/01/17 09:41:08;;;;;;;24.90;22.40;;;;;;;-2.28;90.99;96542.91;107519;1276;22560;-77
2024/01/17 09:43:37;;;;;;;23.30;20.80;;;;;;;-2.20;90.08;96531.74;107352;1269;22662;-77
2024/01/17 09:46:11;;;;;;;24.30;21.50;;;;;;;-2.15;90.07;96523.71;107280;1275;22579;-77
2024/01/17 09:48:40;;;;;;;24.70;22.20;;;;;;;-2.08;88.91;96516.23;106895;1275;24216;-77
2024/01/17 09:51:16;;;;;;;25.40;22.90;;;;;;;-2.03;88.57;96505.00;107295;1276;22803;-77
2024/01/17 09:53:48;;;;;;;27.30;24.60;;;;;;;-2.02;88.72;96510.47;107170;1269;174898;-78
2024/01/17 09:56:18;;;;;;;28.00;24.30;;;;;;;-1.95;89.41;96495.95;107204;1275;22546;-78
2024/01/17 09:58:50;;;;;;;28.50;25.50;;;;;;;-1.86;89.07;96481.13;107383;1271;23926;-77
2024/01/17 10:01:19;;;;;;;25.50;22.80;;;;;;;-1.79;88.26;96478.42;107421;1275;22563;-75
2024/01/17 10:03:51;;;;;;;23.00;20.50;;;;;;;-1.75;87.64;96468.69;107003;1275;25226;-76
2024/01/17 10:06:22;;;;;;;24.50;21.80;;;;;;;-1.69;87.57;96470.04;106904;1263;22540;-77
2024/01/17 10:08:52;;;;;;;27.90;25.10;;;;;;;-1.60;87.55;96460.05;107343;1275;23928;-77
2024/01/17 10:11:21;;;;;;;25.60;22.90;;;;;;;-1.54;86.07;96455.59;107296;1275;22534;-77
2024/01/17 10:13:48;;;;;;;23.80;21.30;;;;;;;-1.51;86.36;96453.65;107137;1275;25432;-75
2024/01/17 10:16:17;;;;;;;24.30;21.80;;;;;;;-1.45;85.71;96447.02;107021;1273;24070;-77
2024/01/17 10:18:45;;;;;;;24.60;22.00;;;;;;;-1.40;85.88;96441.28;107355;1276;22619;-78
2024/01/17 10:21:13;;;;;;;25.40;22.80;;;;;;;-1.34;86.14;96447.34;107289;1262;22543;-77
2024/01/17 10:23:41;;;;;;;24.40;21.90;;;;;;;-1.30;85.44;96440.80;107347;1260;22670;-76
2024/01/17 10:26:09;;;;;;;22.00;19.70;;;;;;;-1.25;84.97;96421.64;107166;1263;24433;-77
2024/01/17 10:28:37;;;;;;;24.20;21.70;;;;;;;-1.24;85.21;96429.89;106871;1275;25438;-77
2024/01/17 10:31:05;;;;;;;27.90;25.20;;;;;;;-1.19;84.36;96424.20;107386;1276;24276;-79
2024/01/17 10:33:34;;;;;;;25.00;22.30;;;;;;;-1.20;83.37;96417.05;107288;1276;22534;-80
2024/01/17 10:36:04;;;;;;;24.60;22.00;;;;;;;-1.18;83.20;96410.36;107848;1276;26548;-77
2024/01/17 10:38:32;;;;;;;23.80;21.40;;;;;;;-1.15;83.95;96402.23;107445;1260;25604;-77
2024/01/17 10:41:05;;;;;;;25.50;22.90;;;;;;;-1.14;83.50;96396.58;107230;1276;22543;-78
2024/01/17 10:43:53;;;;;;;24.40;21.70;;;;;;;-1.11;83.91;96396.47;107305;1273;22656;-78
2024/01/17 10:46:22;;;;;;;28.20;24.80;;;;;;;-1.08;83.33;96390.04;107335;1252;24235;-77
2024/01/17 10:48:51;;;;;;;27.00;24.20;;;;;;;-1.10;82.87;96383.20;107417;1263;24245;-77
2024/01/17 10:51:21;;;;;;;27.50;24.70;;;;;;;-1.09;82.80;96377.91;107008;1265;23921;-77
2024/01/17 10:53:52;;;;;;;28.90;25.80;;;;;;;-1.06;82.72;96363.17;107382;1275;24369;-77
2024/01/17 10:56:26;;;;;;;27.50;24.60;;;;;;;-1.03;82.89;96357.78;107322;1273;22537;-78
2024/01/17 10:58:55;;;;;;;29.50;26.50;;;;;;;-0.96;82.25;96355.16;107232;1272;22664;-77
2024/01/17 11:01:43;;;;;;;29.40;26.40;;;;;;;-0.91;81.61;96354.36;107170;1268;22534;-77
2024/01/17 11:04:18;;;;;;;30.80;27.70;;;;;;;-0.88;82.14;96344.33;106869;1259;25436;-76
2024/01/17 11:06:48;;;;;;;33.60;30.20;;;;;;;-0.85;82.03;96341.42;106941;1262;23923;-78
2024/01/17 11:09:18;;;;;;;30.40;27.30;;;;;;;-0.81;81.97;96337.50;107423;1273;24217;-78
2024/01/17 11:11:47;;;;;;;29.20;26.30;;;;;;;-0.72;82.17;96336.82;107355;1273;22541;-78